createdAt,value
2018-09-26T00:00:04.100Z,102029.08
2018-09-26T00:02:37.968Z,102040.44
2018-09-26T00:05:08.136Z,102046.22
2018-09-26T00:07:37.764Z,102037.08
2018-09-26T00:10:07.460Z,102035.09
2018-09-26T00:12:37.117Z,102035.30
2018-09-26T00:15:06.855Z,102030.42
2018-09-26T00:17:36.495Z,102037.45
2018-09-26T00:20:06.570Z,102034.45
2018-09-26T00:22:36.200Z,102024.57
2018-09-26T00:25:05.932Z,102021.25
2018-09-26T00:27:35.664Z,102023.85
2018-09-26T00:30:05.388Z,102019.47
2018-09-26T00:32:35.071Z,102015.87
2018-09-26T00:35:04.776Z,102014.80
2018-09-26T00:37:34.432Z,102010.90
2018-09-26T00:40:04.171Z,102006.44
2018-09-26T00:42:33.791Z,101996.70
2018-09-26T00:45:03.420Z,101987.65
2018-09-26T00:47:33.076Z,101992.81
2018-09-26T00:50:02.715Z,101996.70
2018-09-26T00:52:32.360Z,101991.83
2018-09-26T00:55:02.041Z,101993.17
2018-09-26T00:57:31.684Z,101985.71
2018-09-26T01:00:01.324Z,101985.91
2018-09-26T01:02:30.980Z,101986.13
2018-09-26T01:05:00.611Z,101983.17
2018-09-26T01:07:30.301Z,101981.65
2018-09-26T01:09:59.939Z,101973.65
2018-09-26T01:12:29.584Z,101973.95
2018-09-26T01:14:59.248Z,101974.49
2018-09-26T01:17:28.890Z,101956.98
2018-09-26T01:19:58.543Z,101955.46
2018-09-26T01:22:28.315Z,101955.72
2018-09-26T01:24:57.980Z,101954.87
2018-09-26T01:27:27.675Z,101955.81
2018-09-26T01:29:57.366Z,101942.86
2018-09-26T01:32:27.008Z,101941.07
2018-09-26T01:34:56.673Z,101938.58
2018-09-26T01:37:26.318Z,101925.06
2018-09-26T01:39:55.956Z,101931.42
2018-09-26T01:42:25.665Z,101930.86
2018-09-26T01:44:55.400Z,101934.30
2018-09-26T01:47:25.020Z,101936.86
2018-09-26T01:49:54.709Z,101940.30
2018-09-26T01:52:24.360Z,101928.95
2018-09-26T01:54:53.995Z,101932.52
2018-09-26T01:57:23.629Z,101928.13
2018-09-26T01:59:53.313Z,101933.86
2018-09-26T02:02:22.936Z,101932.05
2018-09-26T02:04:52.584Z,101926.13
2018-09-26T02:07:22.245Z,101918.33
2018-09-26T02:09:51.877Z,101910.82
2018-09-26T02:12:21.528Z,101912.16
2018-09-26T02:14:51.192Z,101913.95
2018-09-26T02:17:20.851Z,101916.42
2018-09-26T02:19:50.496Z,101916.05
2018-09-26T02:22:20.243Z,101916.69
2018-09-26T02:24:49.856Z,101919.95
2018-09-26T02:27:19.488Z,101920.98
2018-09-26T02:29:49.168Z,101924.80
2018-09-26T02:32:18.898Z,101918.61
2018-09-26T02:34:48.527Z,101912.80
2018-09-26T02:37:18.212Z,101913.26
2018-09-26T02:39:47.868Z,101915.08
2018-09-26T02:42:17.501Z,101910.13
2018-09-26T02:44:47.163Z,101911.74
2018-09-26T02:47:16.797Z,101911.56
2018-09-26T02:49:46.424Z,101909.78
2018-09-26T02:52:16.140Z,101915.86
2018-09-26T02:54:45.773Z,101920.34
2018-09-26T02:57:15.408Z,101919.11
2018-09-26T02:59:45.101Z,101917.38
2018-09-26T03:02:14.753Z,101910.44
2018-09-26T03:04:44.454Z,101915.48
2018-09-26T03:07:14.136Z,101909.01
2018-09-26T03:09:43.757Z,101906.15
2018-09-26T03:12:13.404Z,101910.83
2018-09-26T03:14:43.098Z,101907.59
2018-09-26T03:17:12.732Z,101915.59
2018-09-26T03:19:42.344Z,101907.19
2018-09-26T03:22:12.014Z,101903.59
2018-09-26T03:24:41.662Z,101902.40
2018-09-26T03:27:11.301Z,101898.36
2018-09-26T03:29:40.996Z,101898.89
2018-09-26T03:32:10.640Z,101893.76
2018-09-26T03:34:40.328Z,101886.81
2018-09-26T03:37:10.019Z,101872.05
2018-09-26T03:39:39.664Z,101872.70
2018-09-26T03:42:09.364Z,101879.28
2018-09-26T03:44:38.992Z,101883.39
2018-09-26T03:47:08.637Z,101876.15
2018-09-26T03:49:38.339Z,101875.39
2018-09-26T03:52:07.981Z,101870.06
2018-09-26T03:54:37.637Z,101871.68
2018-09-26T03:57:07.332Z,101870.06
2018-09-26T03:59:36.972Z,101863.95
2018-09-26T04:02:06.667Z,101853.57
2018-09-26T04:04:36.358Z,101851.47
2018-09-26T04:07:06.133Z,101858.72
2018-09-26T04:09:35.804Z,101863.89
2018-09-26T04:12:05.551Z,101861.79
2018-09-26T04:14:35.180Z,101850.25
2018-09-26T04:17:04.830Z,101844.45
2018-09-26T04:19:34.516Z,101848.62
2018-09-26T04:22:04.184Z,101845.67
2018-09-26T04:24:33.816Z,101842.55
2018-09-26T04:27:03.797Z,101837.88
2018-09-26T04:29:33.160Z,101829.03
2018-09-26T04:32:02.800Z,101832.73
2018-09-26T04:34:32.521Z,101839.78
2018-09-26T04:37:02.160Z,101840.83
2018-09-26T04:39:31.787Z,101837.90
2018-09-26T04:42:01.484Z,101835.11
2018-09-26T04:44:31.124Z,101832.64
2018-09-26T04:47:00.852Z,101825.60
2018-09-26T04:49:30.476Z,101831.41
2018-09-26T04:52:00.188Z,101839.59
2018-09-26T04:54:29.813Z,101836.36
2018-09-26T04:56:59.485Z,101835.98
2018-09-26T04:59:29.200Z,101834.55
2018-09-26T05:01:58.840Z,101840.55
2018-09-26T05:04:28.471Z,101842.18
2018-09-26T05:06:58.184Z,101833.14
2018-09-26T05:09:27.930Z,101832.84
2018-09-26T05:11:57.616Z,101834.84
2018-09-26T05:14:27.287Z,101826.18
2018-09-26T05:16:56.956Z,101823.59
2018-09-26T05:19:26.580Z,101832.92
2018-09-26T05:21:56.260Z,101831.21
2018-09-26T05:24:26.103Z,101827.70
2018-09-26T05:26:55.780Z,101825.50
2018-09-26T05:29:25.628Z,101825.05
2018-09-26T05:31:55.265Z,101820.77
2018-09-26T05:34:24.924Z,101825.15
2018-09-26T05:36:54.573Z,101827.98
2018-09-26T05:39:24.201Z,101833.39
2018-09-26T05:41:53.830Z,101839.89
2018-09-26T05:44:23.513Z,101835.59
2018-09-26T05:46:53.151Z,101835.88
2018-09-26T05:49:22.776Z,101835.11
2018-09-26T05:51:52.439Z,101828.17
2018-09-26T05:54:22.064Z,101822.56
2018-09-26T05:56:51.684Z,101816.53
2018-09-26T05:59:21.375Z,101811.31
2018-09-26T06:01:51.007Z,101811.66
2018-09-26T06:04:20.652Z,101813.63
2018-09-26T06:06:50.340Z,101817.41
2018-09-26T06:09:19.982Z,101816.29
2018-09-26T06:11:49.612Z,101817.23
2018-09-26T06:14:19.353Z,101813.41
2018-09-26T06:16:48.984Z,101810.73
2018-09-26T06:19:18.612Z,101812.69
2018-09-26T06:21:48.492Z,101811.47
2018-09-26T06:24:18.119Z,101812.24
2018-09-26T06:26:47.752Z,101803.01
2018-09-26T06:29:17.469Z,101799.95
2018-09-26T06:31:47.128Z,101796.55
2018-09-26T06:34:16.776Z,101789.95
2018-09-26T06:36:46.470Z,101795.17
2018-09-26T06:39:16.107Z,101799.28
2018-09-26T06:41:45.743Z,101799.34
2018-09-26T06:44:15.427Z,101791.79
2018-09-26T06:46:45.072Z,101795.52
2018-09-26T06:49:14.764Z,101790.78
2018-09-26T06:51:44.469Z,101790.16
2018-09-26T06:54:14.108Z,101789.45
2018-09-26T06:56:43.748Z,101776.00
2018-09-26T06:59:13.412Z,101766.33
2018-09-26T07:01:43.072Z,101767.94
2018-09-26T07:04:12.715Z,101760.53
2018-09-26T07:06:42.412Z,101761.98
2018-09-26T07:09:12.316Z,101754.90
2018-09-26T07:11:42.000Z,101755.49
2018-09-26T07:14:11.672Z,101751.50
2018-09-26T07:16:41.304Z,101762.34
2018-09-26T07:19:10.960Z,101757.27
2018-09-26T07:21:40.664Z,101757.95
2018-09-26T07:24:10.302Z,101750.17
2018-09-26T07:26:39.937Z,101767.91
2018-09-26T07:29:09.763Z,101758.11
2018-09-26T07:31:39.440Z,101756.02
2018-09-26T07:34:09.303Z,101757.89
2018-09-26T07:36:38.964Z,101757.80
2018-09-26T07:39:10.584Z,101761.23
2018-09-26T07:41:40.293Z,101768.95
2018-09-26T07:44:09.939Z,101766.31
2018-09-26T07:46:39.638Z,101757.71
2018-09-26T07:49:09.280Z,101758.66
2018-09-26T07:51:38.960Z,101757.84
2018-09-26T07:54:08.813Z,101758.13
2018-09-26T07:56:38.489Z,101754.55
2018-09-26T07:59:08.305Z,101758.01
2018-09-26T08:01:37.902Z,101747.77
2018-09-26T08:04:07.659Z,101748.29
2018-09-26T08:06:37.331Z,101751.30
2018-09-26T08:09:08.621Z,101758.00
2018-09-26T08:11:38.391Z,101750.09
2018-09-26T08:14:08.120Z,101764.52
2018-09-26T08:16:37.891Z,101756.50
2018-09-26T08:19:07.596Z,101751.65
2018-09-26T08:21:37.230Z,101751.59
2018-09-26T08:24:07.100Z,101761.39
2018-09-26T08:26:36.629Z,101772.47
2018-09-26T08:29:06.393Z,101767.38
2018-09-26T08:31:36.052Z,101758.22
2018-09-26T08:34:05.769Z,101760.12
2018-09-26T08:36:35.480Z,101759.80
2018-09-26T08:39:08.471Z,101767.25
2018-09-26T08:41:38.280Z,101766.54
2018-09-26T08:44:08.352Z,101757.44
2018-09-26T08:46:38.100Z,101756.56
2018-09-26T08:49:07.768Z,101757.20
2018-09-26T08:51:37.487Z,101753.44
2018-09-26T08:54:07.209Z,101760.39
2018-09-26T08:56:36.925Z,101759.28
2018-09-26T08:59:06.666Z,101757.45
2018-09-26T09:01:41.372Z,101746.23
2018-09-26T09:04:11.019Z,101741.57
2018-09-26T09:06:40.831Z,101731.41
2018-09-26T09:09:10.644Z,101730.66
2018-09-26T09:11:40.281Z,101732.95
2018-09-26T09:14:10.006Z,101725.30
2018-09-26T09:16:39.704Z,101728.85
2018-09-26T09:19:09.348Z,101730.06
2018-09-26T09:21:39.001Z,101743.25
2018-09-26T09:24:08.754Z,101746.23
2018-09-26T09:26:38.417Z,101745.55
2018-09-26T09:29:08.160Z,101744.25
2018-09-26T09:31:37.795Z,101742.69
2018-09-26T09:34:07.480Z,101742.30
2018-09-26T09:36:37.272Z,101736.31
2018-09-26T09:39:08.969Z,101744.32
2018-09-26T09:41:38.684Z,101744.84
2018-09-26T09:44:08.407Z,101747.91
2018-09-26T09:46:38.258Z,101744.75
2018-09-26T09:49:08.120Z,101732.84
2018-09-26T09:51:37.855Z,101717.18
2018-09-26T09:54:07.880Z,101715.45
2018-09-26T09:56:37.597Z,101707.13
2018-09-26T09:59:07.432Z,101705.50
2018-09-26T10:01:37.079Z,101708.70
2018-09-26T10:04:06.737Z,101710.41
2018-09-26T10:06:36.420Z,101713.38
2018-09-26T10:09:07.887Z,101718.02
2018-09-26T10:11:37.634Z,101714.00
2018-09-26T10:14:07.332Z,101709.88
2018-09-26T10:16:37.000Z,101715.39
2018-09-26T10:19:06.745Z,101722.19
2018-09-26T10:21:36.433Z,101715.47
2018-09-26T10:24:06.078Z,101709.94
2018-09-26T10:26:35.690Z,101701.05
2018-09-26T10:29:05.490Z,101679.34
2018-09-26T10:31:35.122Z,101677.19
2018-09-26T10:34:04.790Z,101684.69
2018-09-26T10:36:34.686Z,101678.45
2018-09-26T10:39:04.558Z,101676.27
2018-09-26T10:41:34.266Z,101670.13
2018-09-26T10:44:03.988Z,101668.33
2018-09-26T10:46:33.745Z,101666.98
2018-09-26T10:49:03.421Z,101659.84
2018-09-26T10:51:33.058Z,101652.88
2018-09-26T10:54:02.679Z,101654.45
2018-09-26T10:56:32.398Z,101647.84
2018-09-26T10:59:02.270Z,101641.78
2018-09-26T11:01:31.897Z,101644.20
2018-09-26T11:04:01.657Z,101646.54
2018-09-26T11:06:31.283Z,101641.73
2018-09-26T11:09:00.917Z,101635.89
2018-09-26T11:11:30.825Z,101627.50
2018-09-26T11:14:00.478Z,101627.30
2018-09-26T11:16:30.123Z,101619.91
2018-09-26T11:18:59.932Z,101612.34
2018-09-26T11:21:29.501Z,101602.19
2018-09-26T11:23:59.268Z,101611.45
2018-09-26T11:26:28.964Z,101595.86
2018-09-26T11:28:58.554Z,101597.80
2018-09-26T11:31:28.234Z,101589.34
2018-09-26T11:33:57.958Z,101595.09
2018-09-26T11:36:27.570Z,101598.81
2018-09-26T11:38:57.266Z,101600.25
2018-09-26T11:41:26.925Z,101602.63
2018-09-26T11:43:56.550Z,101588.34
2018-09-26T11:46:26.286Z,101589.19
2018-09-26T11:48:55.866Z,101586.49
2018-09-26T11:51:25.522Z,101584.09
2018-09-26T11:53:55.530Z,101580.02
2018-09-26T11:56:25.174Z,101576.59
2018-09-26T11:58:54.810Z,101577.30
2018-09-26T12:01:24.446Z,101580.69
2018-09-26T12:03:54.086Z,101570.69
2018-09-26T12:06:23.829Z,101565.78
2018-09-26T12:08:53.626Z,101567.88
2018-09-26T12:11:23.310Z,101564.71
2018-09-26T12:13:53.217Z,101561.55
2018-09-26T12:16:22.976Z,101553.80
2018-09-26T12:18:52.697Z,101549.40
2018-09-26T12:21:30.444Z,101539.22
2018-09-26T12:23:52.301Z,101540.44
2018-09-26T12:26:21.922Z,101538.92
2018-09-26T12:28:54.625Z,101541.15
2018-09-26T12:31:24.386Z,101535.59
2018-09-26T12:33:53.999Z,101528.83
2018-09-26T12:36:23.667Z,101519.86
2018-09-26T12:38:53.323Z,101515.81
2018-09-26T12:41:22.954Z,101518.50
2018-09-26T12:43:52.577Z,101516.64
2018-09-26T12:46:22.304Z,101509.86
2018-09-26T12:48:52.191Z,101502.24
2018-09-26T12:51:21.834Z,101497.48
2018-09-26T12:53:51.583Z,101489.66
2018-09-26T12:56:21.190Z,101488.13
2018-09-26T12:58:50.822Z,101484.87
2018-09-26T13:01:20.530Z,101492.86
2018-09-26T13:03:50.165Z,101489.79
2018-09-26T13:06:19.850Z,101477.91
2018-09-26T13:08:49.502Z,101477.37
2018-09-26T13:11:19.147Z,101481.88
2018-09-26T13:13:48.782Z,101468.30
2018-09-26T13:16:18.533Z,101460.09
2018-09-26T13:18:48.188Z,101461.61
2018-09-26T13:21:17.832Z,101457.97
2018-09-26T13:23:47.514Z,101458.61
2018-09-26T13:26:17.155Z,101451.83
2018-09-26T13:28:46.818Z,101433.91
2018-09-26T13:31:16.486Z,101429.89
2018-09-26T13:33:46.142Z,101430.43
2018-09-26T13:36:15.803Z,101431.27
2018-09-26T13:38:45.502Z,101433.27
2018-09-26T13:41:15.138Z,101437.22
2018-09-26T13:43:44.754Z,101429.82
2018-09-26T13:46:14.519Z,101426.09
2018-09-26T13:48:44.107Z,101427.80
2018-09-26T13:51:13.726Z,101413.63
2018-09-26T13:53:43.381Z,101419.65
2018-09-26T13:56:13.047Z,101420.52
2018-09-26T13:58:42.890Z,101409.09
2018-09-26T14:01:12.637Z,101413.20
2018-09-26T14:03:42.390Z,101405.48
2018-09-26T14:06:12.088Z,101404.93
2018-09-26T14:08:41.742Z,101401.94
2018-09-26T14:11:11.383Z,101406.48
2018-09-26T14:13:41.058Z,101415.60
2018-09-26T14:16:10.684Z,101408.17
2018-09-26T14:18:40.395Z,101412.64
2018-09-26T14:21:10.105Z,101404.20
2018-09-26T14:23:39.853Z,101411.81
2018-09-26T14:26:09.586Z,101401.78
2018-09-26T14:28:39.249Z,101395.67
2018-09-26T14:31:08.911Z,101395.42
2018-09-26T14:33:38.556Z,101390.18
2018-09-26T14:36:08.252Z,101387.80
2018-09-26T14:38:38.012Z,101392.36
2018-09-26T14:41:07.722Z,101384.98
2018-09-26T14:43:37.410Z,101377.46
2018-09-26T14:46:07.078Z,101384.98
2018-09-26T14:48:36.756Z,101377.73
2018-09-26T14:51:06.810Z,101380.63
2018-09-26T14:53:36.458Z,101375.18
2018-09-26T14:56:06.162Z,101376.69
2018-09-26T14:58:35.819Z,101361.66
2018-09-26T15:01:05.918Z,101362.64
2018-09-26T15:03:35.592Z,101365.41
2018-09-26T15:06:05.288Z,101359.02
2018-09-26T15:08:34.959Z,101355.63
2018-09-26T15:11:04.646Z,101351.44
2018-09-26T15:13:36.229Z,101351.45
2018-09-26T15:16:06.132Z,101354.42
2018-09-26T15:18:35.770Z,101347.59
2018-09-26T15:21:05.465Z,101348.64
2018-09-26T15:23:35.082Z,101348.95
2018-09-26T15:26:04.739Z,101354.23
2018-09-26T15:28:34.432Z,101345.26
2018-09-26T15:31:04.322Z,101350.33
2018-09-26T15:33:33.966Z,101341.23
2018-09-26T15:36:03.617Z,101344.64
2018-09-26T15:38:33.258Z,101344.65
2018-09-26T15:41:02.906Z,101347.06
2018-09-26T15:43:32.542Z,101348.41
2018-09-26T15:46:02.254Z,101350.33
2018-09-26T15:48:31.987Z,101338.48
2018-09-26T15:51:01.620Z,101342.05
2018-09-26T15:53:31.254Z,101332.11
2018-09-26T15:56:00.925Z,101326.34
2018-09-26T15:58:30.542Z,101329.91
2018-09-26T16:01:00.202Z,101330.24
2018-09-26T16:03:29.835Z,101322.32
2018-09-26T16:05:59.554Z,101322.67
2018-09-26T16:08:29.180Z,101324.70
2018-09-26T16:10:58.838Z,101319.80
2018-09-26T16:13:28.480Z,101315.75
2018-09-26T16:15:58.153Z,101318.44
2018-09-26T16:18:27.795Z,101321.64
2018-09-26T16:20:58.322Z,101319.95
2018-09-26T16:23:27.954Z,101327.41
2018-09-26T16:25:57.599Z,101331.11
2018-09-26T16:28:27.337Z,101337.70
2018-09-26T16:30:56.894Z,101342.41
2018-09-26T16:33:26.510Z,101340.22
2018-09-26T16:35:56.186Z,101342.74
2018-09-26T16:38:25.895Z,101341.00
2018-09-26T16:40:55.555Z,101349.41
2018-09-26T16:43:25.215Z,101347.05
2018-09-26T16:45:54.849Z,101343.83
2018-09-26T16:48:24.569Z,101339.76
2018-09-26T16:50:54.166Z,101334.83
2018-09-26T16:53:23.813Z,101328.41
2018-09-26T16:55:53.426Z,101334.63
2018-09-26T16:58:23.167Z,101336.78
2018-09-26T17:00:52.917Z,101344.89
2018-09-26T17:03:22.623Z,101346.90
2018-09-26T17:05:52.530Z,101341.78
2018-09-26T17:08:22.221Z,101343.88
2018-09-26T17:10:51.886Z,101341.75
2018-09-26T17:13:21.538Z,101341.42
2018-09-26T17:15:51.178Z,101348.35
2018-09-26T17:18:20.863Z,101345.94
2018-09-26T17:20:50.485Z,101354.42
2018-09-26T17:23:20.154Z,101351.38
2018-09-26T17:25:49.825Z,101351.89
2018-09-26T17:28:19.521Z,101360.01
2018-09-26T17:30:49.150Z,101365.11
2018-09-26T17:33:18.836Z,101366.96
2018-09-26T17:35:48.566Z,101368.31
2018-09-26T17:38:18.217Z,101366.96
2018-09-26T17:40:47.829Z,101368.85
2018-09-26T17:43:17.542Z,101378.86
2018-09-26T17:45:47.144Z,101381.20
2018-09-26T17:48:16.814Z,101377.42
2018-09-26T17:50:46.486Z,101374.44
2018-09-26T17:53:16.162Z,101372.67
2018-09-26T17:55:45.790Z,101367.80
2018-09-26T17:58:15.486Z,101372.42
2018-09-26T18:00:45.166Z,101365.72
2018-09-26T18:03:14.801Z,101361.12
2018-09-26T18:05:44.637Z,101367.16
2018-09-26T18:08:14.277Z,101371.14
2018-09-26T18:10:43.902Z,101374.19
2018-09-26T18:13:13.637Z,101363.47
2018-09-26T18:15:43.262Z,101368.19
2018-09-26T18:18:12.989Z,101369.19
2018-09-26T18:20:42.658Z,101368.25
2018-09-26T18:23:12.383Z,101369.47
2018-09-26T18:25:41.980Z,101371.08
2018-09-26T18:28:11.697Z,101381.47
2018-09-26T18:30:41.301Z,101382.47
2018-09-26T18:33:11.056Z,101379.26
2018-09-26T18:35:40.658Z,101380.16
2018-09-26T18:38:10.323Z,101374.38
2018-09-26T18:40:39.973Z,101377.62
2018-09-26T18:43:09.631Z,101378.23
2018-09-26T18:45:39.249Z,101378.07
2018-09-26T18:48:09.028Z,101377.43
2018-09-26T18:50:38.790Z,101384.01
2018-09-26T18:53:08.487Z,101382.53
2018-09-26T18:55:38.135Z,101383.69
2018-09-26T18:58:07.793Z,101389.20
2018-09-26T19:00:37.423Z,101396.49
2018-09-26T19:03:07.197Z,101393.44
2018-09-26T19:05:36.773Z,101399.13
2018-09-26T19:08:06.423Z,101404.23
2018-09-26T19:10:36.051Z,101405.92
2018-09-26T19:13:05.693Z,101402.52
2018-09-26T19:15:35.324Z,101406.22
2018-09-26T19:18:05.070Z,101407.47
2018-09-26T19:20:34.689Z,101406.44
2018-09-26T19:23:04.429Z,101403.78
2018-09-26T19:25:34.086Z,101401.59
2018-09-26T19:28:03.785Z,101402.75
2018-09-26T19:30:33.483Z,101412.61
2018-09-26T19:33:03.294Z,101412.93
2018-09-26T19:35:32.838Z,101415.98
2018-09-26T19:38:02.489Z,101408.20
2018-09-26T19:40:32.134Z,101408.69
2018-09-26T19:43:02.249Z,101412.77
2018-09-26T19:45:31.894Z,101413.47
2018-09-26T19:48:01.530Z,101413.70
2018-09-26T19:50:31.137Z,101406.61
2018-09-26T19:53:00.774Z,101410.91
2018-09-26T19:55:30.401Z,101405.90
2018-09-26T19:58:00.083Z,101404.20
2018-09-26T20:00:29.716Z,101405.06
2018-09-26T20:02:59.371Z,101405.23
2018-09-26T20:05:28.998Z,101412.28
2018-09-26T20:07:58.689Z,101405.73
2018-09-26T20:10:28.307Z,101412.13
2018-09-26T20:12:57.958Z,101415.17
2018-09-26T20:15:27.598Z,101408.98
2018-09-26T20:17:57.289Z,101397.45
2018-09-26T20:20:26.926Z,101402.72
2018-09-26T20:22:56.603Z,101398.67
2018-09-26T20:25:26.246Z,101401.83
2018-09-26T20:27:55.890Z,101402.20
2018-09-26T20:30:25.553Z,101399.00
2018-09-26T20:32:55.279Z,101405.73
2018-09-26T20:35:24.928Z,101407.79
2018-09-26T20:37:54.546Z,101403.52
2018-09-26T20:40:24.229Z,101391.77
2018-09-26T20:42:53.864Z,101387.21
2018-09-26T20:45:23.536Z,101384.48
2018-09-26T20:47:53.210Z,101375.53
2018-09-26T20:50:22.830Z,101380.95
2018-09-26T20:52:52.717Z,101379.09
2018-09-26T20:55:22.376Z,101380.25
2018-09-26T20:57:52.046Z,101374.19
2018-09-26T21:00:21.678Z,101377.49
2018-09-26T21:02:51.335Z,101370.23
2018-09-26T21:05:20.957Z,101376.11
2018-09-26T21:07:50.622Z,101372.61
2018-09-26T21:10:20.323Z,101369.34
2018-09-26T21:12:49.957Z,101372.48
2018-09-26T21:15:19.585Z,101364.98
2018-09-26T21:17:49.222Z,101364.81
2018-09-26T21:20:18.981Z,101361.28
2018-09-26T21:22:48.618Z,101361.61
2018-09-26T21:25:18.281Z,101365.61
2018-09-26T21:27:47.960Z,101368.38
2018-09-26T21:30:17.582Z,101374.21
2018-09-26T21:32:47.229Z,101377.84
2018-09-26T21:35:16.902Z,101376.30
2018-09-26T21:37:46.534Z,101381.25
2018-09-26T21:40:16.249Z,101379.16
2018-09-26T21:42:46.055Z,101381.47
2018-09-26T21:45:15.670Z,101379.83
2018-09-26T21:47:45.333Z,101379.99
2018-09-26T21:50:14.993Z,101387.49
2018-09-26T21:52:44.674Z,101399.53
2018-09-26T21:55:14.318Z,101393.47
2018-09-26T21:57:43.955Z,101398.63
2018-09-26T22:00:13.657Z,101392.44
2018-09-26T22:02:43.345Z,101386.34
2018-09-26T22:05:13.007Z,101392.75
2018-09-26T22:07:42.703Z,101392.17
2018-09-26T22:10:12.393Z,101396.25
2018-09-26T22:12:42.090Z,101394.90
2018-09-26T22:15:21.553Z,101398.98
2018-09-26T22:17:51.492Z,101411.30
2018-09-26T22:20:21.236Z,101417.48
2018-09-26T22:22:51.070Z,101404.97
2018-09-26T22:25:20.737Z,101407.81
2018-09-26T22:27:50.405Z,101408.41
2018-09-26T22:30:20.076Z,101417.30
2018-09-26T22:32:49.765Z,101411.62
2018-09-26T22:35:19.435Z,101407.77
2018-09-26T22:37:49.198Z,101405.88
2018-09-26T22:40:18.852Z,101395.97
2018-09-26T22:42:48.597Z,101397.62
2018-09-26T22:45:18.280Z,101405.01
2018-09-26T22:47:47.962Z,101400.64
2018-09-26T22:50:17.664Z,101404.64
2018-09-26T22:52:47.328Z,101402.31
2018-09-26T22:55:17.053Z,101411.11
2018-09-26T22:57:46.745Z,101403.14
2018-09-26T23:00:16.449Z,101397.59
2018-09-26T23:02:46.139Z,101403.63
2018-09-26T23:05:15.846Z,101404.45
2018-09-26T23:07:45.513Z,101398.55
2018-09-26T23:10:15.222Z,101403.14
2018-09-26T23:12:44.896Z,101402.59
2018-09-26T23:15:14.589Z,101400.49
2018-09-26T23:17:44.235Z,101409.56
2018-09-26T23:20:13.980Z,101412.14
2018-09-26T23:22:43.641Z,101395.46
2018-09-26T23:25:13.648Z,101392.96
2018-09-26T23:27:43.306Z,101396.17
2018-09-26T23:30:13.071Z,101391.30
2018-09-26T23:32:42.724Z,101384.84
2018-09-26T23:35:12.491Z,101387.53
2018-09-26T23:37:42.357Z,101374.90
2018-09-26T23:40:12.073Z,101380.95
2018-09-26T23:42:41.780Z,101372.01
2018-09-26T23:45:11.462Z,101369.75
2018-09-26T23:47:41.207Z,101366.19
2018-09-26T23:50:10.938Z,101366.70
2018-09-26T23:52:40.612Z,101363.73
2018-09-26T23:55:10.314Z,101365.36
2018-09-26T23:57:39.987Z,101357.83
